createdAt,value
2019-02-08T00:00:47.214Z,1.93
2019-02-08T00:03:16.017Z,2.33
2019-02-08T00:05:44.835Z,2.30
2019-02-08T00:08:13.521Z,2.13
2019-02-08T00:10:42.553Z,1.80
2019-02-08T00:13:11.332Z,2.30
2019-02-08T00:15:40.989Z,2.40
2019-02-08T00:18:09.884Z,3.33
2019-02-08T00:20:38.810Z,1.77
2019-02-08T00:23:07.656Z,1.83
2019-02-08T00:25:36.597Z,1.83
2019-02-08T00:28:05.495Z,1.80
2019-02-08T00:30:34.339Z,2.70
2019-02-08T00:33:03.657Z,1.90
2019-02-08T00:35:33.886Z,2.30
2019-02-08T00:38:02.609Z,1.77
2019-02-08T00:40:31.633Z,2.13
2019-02-08T00:43:00.725Z,1.97
2019-02-08T00:45:30.046Z,1.63
2019-02-08T00:47:58.989Z,1.83
2019-02-08T00:50:27.820Z,2.47
2019-02-08T00:52:57.195Z,3.03
2019-02-08T00:55:26.299Z,2.63
2019-02-08T00:57:56.396Z,3.33
2019-02-08T01:00:25.706Z,2.77
2019-02-08T01:02:55.266Z,2.53
2019-02-08T01:05:24.472Z,1.80
2019-02-08T01:07:53.834Z,2.30
2019-02-08T01:10:25.453Z,1.53
2019-02-08T01:12:54.268Z,1.70
2019-02-08T01:15:24.254Z,1.60
2019-02-08T01:17:53.371Z,1.70
2019-02-08T01:20:22.434Z,1.23
2019-02-08T01:22:51.755Z,2.03
2019-02-08T01:25:22.383Z,1.43
2019-02-08T01:27:51.732Z,1.37
2019-02-08T01:30:22.341Z,1.93
2019-02-08T01:32:51.220Z,1.40
2019-02-08T01:35:20.464Z,1.90
2019-02-08T01:37:49.461Z,2.40
2019-02-08T01:40:37.648Z,1.00
2019-02-08T01:43:07.113Z,0.93
2019-02-08T01:45:36.434Z,1.17
2019-02-08T01:48:07.211Z,1.63
2019-02-08T01:50:36.288Z,1.43
2019-02-08T01:53:05.721Z,1.10
2019-02-08T01:55:34.508Z,1.40
2019-02-08T01:58:03.377Z,1.30
2019-02-08T02:00:35.372Z,1.17
2019-02-08T02:03:06.253Z,1.00
2019-02-08T02:05:36.821Z,1.53
2019-02-08T02:08:05.989Z,1.13
2019-02-08T02:10:37.409Z,1.30
2019-02-08T02:13:06.793Z,1.23
2019-02-08T02:15:35.768Z,1.27
2019-02-08T02:18:05.657Z,1.20
2019-02-08T02:20:38.964Z,1.50
2019-02-08T02:23:09.360Z,1.37
2019-02-08T02:25:39.466Z,1.27
2019-02-08T02:28:08.463Z,1.40
2019-02-08T02:30:37.777Z,1.30
2019-02-08T02:33:08.466Z,1.30
2019-02-08T02:35:37.643Z,1.70
2019-02-08T02:38:06.765Z,1.60
2019-02-08T02:40:35.753Z,1.37
2019-02-08T02:43:04.962Z,1.70
2019-02-08T02:45:36.061Z,2.40
2019-02-08T02:48:06.404Z,2.00
2019-02-08T02:50:35.542Z,2.10
2019-02-08T02:53:05.750Z,2.13
2019-02-08T02:55:34.646Z,2.27
2019-02-08T02:58:03.572Z,1.80
2019-02-08T03:00:35.562Z,1.70
2019-02-08T03:03:04.516Z,1.60
2019-02-08T03:05:33.794Z,1.47
2019-02-08T03:08:02.689Z,1.57
2019-02-08T03:10:32.003Z,1.30
2019-02-08T03:13:00.784Z,1.60
2019-02-08T03:15:29.598Z,1.13
2019-02-08T03:17:58.617Z,1.13
2019-02-08T03:20:27.415Z,1.73
2019-02-08T03:22:56.224Z,1.40
2019-02-08T03:25:25.594Z,1.30
2019-02-08T03:27:54.466Z,1.57
2019-02-08T03:30:30.115Z,1.23
2019-02-08T03:32:58.912Z,1.63
2019-02-08T03:35:28.112Z,1.43
2019-02-08T03:37:56.982Z,1.17
2019-02-08T03:40:26.949Z,1.23
2019-02-08T03:42:55.829Z,1.10
2019-02-08T03:45:26.612Z,1.13
2019-02-08T03:47:55.471Z,1.20
2019-02-08T03:50:24.701Z,1.20
2019-02-08T03:52:54.050Z,1.30
2019-02-08T03:55:23.918Z,1.17
2019-02-08T03:57:52.643Z,1.70
2019-02-08T04:00:28.473Z,1.03
2019-02-08T04:02:57.829Z,1.43
2019-02-08T04:05:26.933Z,1.20
2019-02-08T04:07:55.642Z,1.10
2019-02-08T04:10:24.544Z,1.00
2019-02-08T04:12:53.676Z,1.10
2019-02-08T04:15:22.725Z,1.47
2019-02-08T04:17:51.633Z,0.73
2019-02-08T04:20:24.758Z,0.83
2019-02-08T04:22:54.002Z,1.40
2019-02-08T04:25:22.827Z,0.93
2019-02-08T04:27:51.757Z,1.17
2019-02-08T04:30:23.134Z,1.00
2019-02-08T04:32:52.520Z,1.63
2019-02-08T04:35:23.107Z,2.40
2019-02-08T04:37:52.208Z,0.97
2019-02-08T04:40:21.259Z,1.47
2019-02-08T04:42:50.461Z,0.80
2019-02-08T04:45:19.695Z,1.13
2019-02-08T04:47:48.487Z,0.93
2019-02-08T04:50:19.353Z,0.93
2019-02-08T04:52:49.698Z,1.47
2019-02-08T04:55:18.724Z,1.47
2019-02-08T04:57:47.566Z,1.27
2019-02-08T05:00:25.693Z,1.30
2019-02-08T05:02:54.489Z,0.80
2019-02-08T05:05:23.361Z,1.40
2019-02-08T05:07:52.142Z,1.07
2019-02-08T05:10:23.013Z,2.27
2019-02-08T05:12:51.932Z,0.97
2019-02-08T05:15:23.089Z,1.70
2019-02-08T05:17:52.037Z,0.80
2019-02-08T05:20:23.099Z,1.00
2019-02-08T05:22:51.865Z,1.13
2019-02-08T05:25:21.842Z,0.90
2019-02-08T05:27:52.654Z,1.00
2019-02-08T05:30:24.264Z,0.70
2019-02-08T05:32:53.205Z,0.80
2019-02-08T05:35:22.861Z,0.70
2019-02-08T05:37:51.737Z,0.90
2019-02-08T05:40:22.043Z,0.93
2019-02-08T05:42:50.861Z,1.03
2019-02-08T05:45:20.057Z,0.60
2019-02-08T05:47:49.266Z,1.00
2019-02-08T05:50:22.092Z,0.70
2019-02-08T05:52:51.132Z,0.70
2019-02-08T05:55:22.524Z,0.70
2019-02-08T05:57:51.433Z,0.73
2019-02-08T06:00:28.452Z,1.00
2019-02-08T06:02:58.258Z,0.70
2019-02-08T06:05:27.477Z,0.70
2019-02-08T06:07:56.282Z,0.73
2019-02-08T06:10:24.997Z,0.97
2019-02-08T06:12:55.391Z,0.90
2019-02-08T06:15:24.390Z,1.07
2019-02-08T06:17:53.985Z,1.30
2019-02-08T06:20:22.884Z,0.90
2019-02-08T06:22:51.613Z,0.70
2019-02-08T06:25:20.947Z,1.10
2019-02-08T06:27:51.313Z,0.93
2019-02-08T06:30:21.328Z,1.20
2019-02-08T06:32:50.501Z,0.80
2019-02-08T06:35:21.954Z,1.00
2019-02-08T06:37:50.933Z,1.03
2019-02-08T06:40:40.733Z,1.10
2019-02-08T06:43:09.843Z,1.27
2019-02-08T06:45:39.101Z,1.20
2019-02-08T06:48:08.977Z,1.23
2019-02-08T06:50:38.127Z,1.40
2019-02-08T06:53:06.965Z,1.60
2019-02-08T06:55:36.076Z,2.53
2019-02-08T06:58:31.749Z,1.60
2019-02-08T07:01:18.567Z,1.53
2019-02-08T07:03:54.718Z,1.50
2019-02-08T07:06:39.380Z,1.50
2019-02-08T07:09:28.000Z,2.60
2019-02-08T07:12:11.361Z,1.97
2019-02-08T07:14:58.962Z,1.10
2019-02-08T07:17:47.789Z,1.50
2019-02-08T07:20:23.943Z,1.10
2019-02-08T07:23:14.789Z,2.17
2019-02-08T07:26:09.105Z,1.70
2019-02-08T07:28:47.015Z,1.80
2019-02-08T07:32:03.065Z,1.33
2019-02-08T07:34:40.660Z,1.33
2019-02-08T07:37:19.617Z,1.47
2019-02-08T07:40:05.841Z,1.30
2019-02-08T07:42:54.852Z,1.00
2019-02-08T07:45:41.910Z,1.90
2019-02-08T07:48:40.561Z,1.73
2019-02-08T07:51:31.845Z,1.17
2019-02-08T07:54:19.550Z,0.90
2019-02-08T07:57:00.834Z,1.17
2019-02-08T07:59:56.347Z,1.10
2019-02-08T08:02:36.261Z,1.30
2019-02-08T08:05:31.226Z,1.10
2019-02-08T08:08:18.441Z,1.00
2019-02-08T08:11:15.844Z,1.77
2019-02-08T08:13:54.255Z,1.10
2019-02-08T08:16:40.070Z,1.03
2019-02-08T08:19:17.543Z,1.37
2019-02-08T08:22:21.289Z,1.40
2019-02-08T08:25:14.884Z,1.77
2019-02-08T08:28:01.661Z,1.50
2019-02-08T08:30:48.136Z,1.23
2019-02-08T08:33:36.162Z,1.20
2019-02-08T08:36:17.186Z,1.03
2019-02-08T08:39:20.655Z,1.20
2019-02-08T08:42:31.762Z,0.83
2019-02-08T08:45:36.596Z,1.30
2019-02-08T08:48:41.622Z,1.40
2019-02-08T08:52:02.674Z,1.50
2019-02-08T08:55:02.160Z,1.40
2019-02-08T08:57:54.181Z,1.80
2019-02-08T09:01:22.951Z,1.60
2019-02-08T09:04:11.706Z,1.70
2019-02-08T09:07:16.230Z,1.73
2019-02-08T09:10:36.875Z,1.40
2019-02-08T09:13:41.949Z,1.50
2019-02-08T09:16:35.420Z,1.47
2019-02-08T09:19:29.080Z,1.90
2019-02-08T09:22:16.419Z,1.10
2019-02-08T09:25:10.158Z,1.33
2019-02-08T09:28:04.360Z,1.67
2019-02-08T09:31:17.013Z,1.70
2019-02-08T09:34:21.901Z,1.47
2019-02-08T09:37:16.638Z,1.20
2019-02-08T09:40:11.858Z,1.30
2019-02-08T09:43:06.315Z,1.27
2019-02-08T09:46:13.394Z,1.23
2019-02-08T09:49:23.773Z,1.70
2019-02-08T09:52:29.701Z,1.17
2019-02-08T09:55:21.644Z,2.10
2019-02-08T09:58:30.479Z,1.23
2019-02-08T10:01:44.559Z,1.10
2019-02-08T10:05:00.391Z,1.40
2019-02-08T10:08:10.983Z,1.30
2019-02-08T10:14:12.757Z,1.20
2019-02-08T10:17:11.921Z,0.90
2019-02-08T10:20:09.186Z,0.90
2019-02-08T10:23:23.561Z,0.80
2019-02-08T10:26:20.027Z,0.70
2019-02-08T10:29:32.541Z,0.97
2019-02-08T10:32:38.360Z,1.17
2019-02-08T10:35:42.145Z,0.80
2019-02-08T10:38:51.137Z,1.00
2019-02-08T10:41:32.698Z,0.60
2019-02-08T10:44:48.768Z,0.90
2019-02-08T10:48:14.130Z,0.80
2019-02-08T10:51:43.473Z,0.90
2019-02-08T10:54:49.021Z,0.70
2019-02-08T10:57:54.044Z,0.70
2019-02-08T11:01:12.754Z,0.93
2019-02-08T11:04:29.098Z,0.80
2019-02-08T11:07:48.488Z,0.80
2019-02-08T11:10:49.608Z,0.70
2019-02-08T11:13:58.473Z,0.80
2019-02-08T11:17:13.628Z,0.70
2019-02-08T11:20:01.658Z,0.97
2019-02-08T11:22:30.716Z,0.83
2019-02-08T11:24:59.469Z,0.90
2019-02-08T11:27:28.234Z,0.80
2019-02-08T11:29:58.159Z,0.90
2019-02-08T11:32:42.494Z,0.80
2019-02-08T11:34:57.501Z,0.87
2019-02-08T11:37:26.845Z,0.50
2019-02-08T11:39:58.213Z,0.70
2019-02-08T11:42:27.320Z,0.50
2019-02-08T11:44:56.307Z,0.53
2019-02-08T11:47:25.077Z,0.67
2019-02-08T11:49:54.399Z,0.77
2019-02-08T11:52:23.124Z,0.70
2019-02-08T11:54:51.893Z,0.60
2019-02-08T11:57:21.055Z,0.40
2019-02-08T11:59:49.825Z,0.60
2019-02-08T12:02:18.579Z,0.50
2019-02-08T12:04:47.621Z,0.70
2019-02-08T12:07:35.957Z,0.63
2019-02-08T12:10:06.078Z,0.60
2019-02-08T12:12:35.028Z,0.60
2019-02-08T12:15:04.625Z,0.60
2019-02-08T12:17:33.323Z,0.60
2019-02-08T12:20:02.032Z,0.60
2019-02-08T12:22:30.849Z,0.77
2019-02-08T12:25:03.697Z,0.73
2019-02-08T12:27:37.341Z,1.00
2019-02-08T12:30:50.006Z,0.60
2019-02-08T12:33:45.650Z,0.77
2019-02-08T12:36:20.496Z,0.80
2019-02-08T12:39:33.333Z,0.90
2019-02-08T12:41:54.725Z,0.90
2019-02-08T12:44:24.014Z,0.80
2019-02-08T12:46:53.527Z,1.00
2019-02-08T12:49:22.933Z,1.00
2019-02-08T12:51:52.246Z,0.60
2019-02-08T12:54:21.527Z,0.83
2019-02-08T12:56:50.926Z,0.80
2019-02-08T12:59:20.403Z,1.13
2019-02-08T13:01:50.981Z,0.90
2019-02-08T13:04:20.264Z,1.00
2019-02-08T13:06:49.099Z,0.70
2019-02-08T13:09:19.452Z,0.90
2019-02-08T13:11:48.504Z,1.07
2019-02-08T13:14:36.482Z,1.20
2019-02-08T13:17:05.324Z,0.83
2019-02-08T13:19:34.056Z,0.80
2019-02-08T13:22:03.896Z,0.60
2019-02-08T13:24:32.847Z,1.10
2019-02-08T13:27:01.697Z,0.90
2019-02-08T13:29:30.480Z,0.80
2019-02-08T13:31:59.231Z,0.70
2019-02-08T13:34:33.625Z,0.70
2019-02-08T13:37:02.694Z,1.10
2019-02-08T13:39:32.280Z,0.80
2019-02-08T13:42:01.215Z,1.00
2019-02-08T13:44:30.195Z,1.50
2019-02-08T13:47:01.190Z,1.10
2019-02-08T13:49:30.063Z,0.90
2019-02-08T13:51:59.052Z,0.80
2019-02-08T13:54:28.121Z,0.80
2019-02-08T13:57:00.760Z,0.80
2019-02-08T13:59:28.231Z,0.80
2019-02-08T14:01:57.180Z,0.90
2019-02-08T14:04:26.364Z,0.83
2019-02-08T14:06:55.468Z,0.90
2019-02-08T14:09:24.545Z,0.80
2019-02-08T14:11:53.445Z,1.10
2019-02-08T14:14:22.453Z,1.07
2019-02-08T14:16:51.472Z,0.90
2019-02-08T14:19:20.365Z,0.80
2019-02-08T14:21:49.765Z,0.80
2019-02-08T14:24:18.547Z,1.27
2019-02-08T14:26:47.405Z,0.80
2019-02-08T14:29:17.707Z,1.40
2019-02-08T14:31:47.355Z,1.10
2019-02-08T14:34:16.412Z,1.80
2019-02-08T14:36:45.598Z,0.93
2019-02-08T14:39:14.492Z,1.00
2019-02-08T14:41:45.046Z,0.90
2019-02-08T14:44:14.409Z,0.87
2019-02-08T14:46:43.421Z,1.00
2019-02-08T14:49:15.312Z,0.63
2019-02-08T14:51:44.165Z,1.17
2019-02-08T14:54:13.350Z,0.90
2019-02-08T14:56:44.165Z,0.70
2019-02-08T14:59:14.380Z,0.80
2019-02-08T15:01:44.601Z,0.70
2019-02-08T15:04:13.699Z,0.70
2019-02-08T15:06:42.522Z,0.90
2019-02-08T15:09:11.965Z,1.20
2019-02-08T15:11:41.109Z,1.00
2019-02-08T15:14:09.933Z,1.80
2019-02-08T15:16:38.641Z,1.10
2019-02-08T15:19:07.616Z,1.50
2019-02-08T15:21:36.328Z,1.43
2019-02-08T15:24:05.733Z,1.53
2019-02-08T15:26:34.868Z,1.60
2019-02-08T15:29:03.773Z,1.87
2019-02-08T15:31:32.565Z,1.30
2019-02-08T15:34:01.434Z,2.10
2019-02-08T15:36:30.557Z,1.80
2019-02-08T15:38:59.342Z,1.47
2019-02-08T15:41:28.164Z,2.00
2019-02-08T15:43:57.130Z,1.40
2019-02-08T15:46:26.126Z,1.90
2019-02-08T15:48:55.191Z,2.43
2019-02-08T15:51:24.056Z,2.10
2019-02-08T15:53:53.210Z,1.90
2019-02-08T15:56:22.130Z,1.87
2019-02-08T15:59:10.130Z,2.00
2019-02-08T16:01:39.402Z,1.60
2019-02-08T16:04:08.137Z,1.90
2019-02-08T16:06:37.707Z,1.47
2019-02-08T16:09:11.280Z,1.43
2019-02-08T16:11:40.310Z,1.60
2019-02-08T16:14:09.249Z,1.30
2019-02-08T16:16:38.033Z,1.20
2019-02-08T16:19:06.937Z,1.30
2019-02-08T16:21:35.903Z,1.60
2019-02-08T16:24:05.754Z,2.13
2019-02-08T16:26:34.552Z,1.23
2019-02-08T16:29:03.503Z,1.40
2019-02-08T16:31:32.305Z,1.73
2019-02-08T16:34:01.048Z,1.50
2019-02-08T16:36:29.874Z,1.40
2019-02-08T16:38:58.748Z,1.10
2019-02-08T16:41:27.710Z,1.60
2019-02-08T16:43:56.665Z,2.00
2019-02-08T16:46:25.647Z,1.63
2019-02-08T16:48:54.680Z,1.83
2019-02-08T16:51:23.580Z,2.20
2019-02-08T16:53:53.760Z,1.30
2019-02-08T16:56:23.509Z,1.30
2019-02-08T16:58:52.474Z,1.53
2019-02-08T17:01:21.389Z,1.47
2019-02-08T17:03:50.412Z,1.47
2019-02-08T17:06:19.502Z,1.20
2019-02-08T17:08:48.890Z,1.20
2019-02-08T17:11:18.125Z,1.40
2019-02-08T17:13:47.329Z,1.10
2019-02-08T17:16:16.415Z,1.30
2019-02-08T17:18:45.550Z,1.03
2019-02-08T17:21:15.788Z,1.33
2019-02-08T17:23:44.732Z,1.33
2019-02-08T17:26:13.664Z,1.20
2019-02-08T17:28:42.932Z,1.30
2019-02-08T17:31:12.105Z,1.70
2019-02-08T17:33:46.598Z,1.07
2019-02-08T17:36:16.158Z,1.20
2019-02-08T17:38:45.276Z,1.00
2019-02-08T17:41:14.265Z,1.30
2019-02-08T17:43:43.474Z,1.30
2019-02-08T17:46:14.113Z,2.30
2019-02-08T17:48:42.876Z,2.40
2019-02-08T17:51:11.579Z,1.60
2019-02-08T17:53:40.414Z,1.60
2019-02-08T17:56:09.290Z,2.03
2019-02-08T17:58:38.260Z,2.40
2019-02-08T18:01:07.152Z,2.50
2019-02-08T18:03:36.021Z,1.20
2019-02-08T18:06:05.442Z,1.43
2019-02-08T18:08:34.921Z,2.10
2019-02-08T18:11:03.773Z,2.60
2019-02-08T18:13:32.991Z,1.80
2019-02-08T18:16:20.955Z,1.60
2019-02-08T18:18:49.741Z,1.93
2019-02-08T18:21:19.085Z,1.50
2019-02-08T18:23:48.077Z,1.20
2019-02-08T18:26:18.883Z,1.30
2019-02-08T18:28:50.082Z,1.27
2019-02-08T18:31:19.054Z,1.50
2019-02-08T18:34:07.129Z,1.40
2019-02-08T18:36:35.853Z,1.77
2019-02-08T18:39:07.536Z,1.57
2019-02-08T18:41:36.797Z,1.57
2019-02-08T18:44:05.536Z,1.83
2019-02-08T18:46:34.781Z,1.40
2019-02-08T18:49:03.621Z,1.20
2019-02-08T18:51:32.650Z,1.50
2019-02-08T18:54:01.614Z,1.20
2019-02-08T18:56:30.684Z,1.57
2019-02-08T18:58:59.448Z,1.93
2019-02-08T19:01:28.280Z,1.60
2019-02-08T19:03:57.155Z,1.70
2019-02-08T19:06:26.496Z,2.07
2019-02-08T19:08:55.302Z,2.13
2019-02-08T19:11:24.705Z,1.67
2019-02-08T19:13:54.176Z,1.80
2019-02-08T19:16:23.271Z,1.20
2019-02-08T19:18:52.045Z,1.83
2019-02-08T19:21:21.017Z,1.73
2019-02-08T19:23:49.817Z,1.93
2019-02-08T19:26:18.573Z,1.77
2019-02-08T19:28:47.304Z,1.90
2019-02-08T19:31:16.061Z,1.90
2019-02-08T19:33:44.876Z,1.50
2019-02-08T19:36:14.214Z,2.27
2019-02-08T19:38:43.428Z,1.60
2019-02-08T19:41:12.562Z,1.30
2019-02-08T19:43:43.495Z,1.70
2019-02-08T19:46:12.253Z,1.67
2019-02-08T19:48:40.991Z,1.50
2019-02-08T19:51:10.470Z,1.37
2019-02-08T19:53:42.364Z,1.43
2019-02-08T19:56:12.500Z,2.10
2019-02-08T19:58:41.652Z,1.37
2019-02-08T20:01:10.433Z,1.50
2019-02-08T20:03:39.188Z,1.60
2019-02-08T20:06:08.300Z,1.30
2019-02-08T20:08:40.383Z,1.60
2019-02-08T20:11:09.293Z,1.57
2019-02-08T20:13:38.253Z,1.50
2019-02-08T20:16:07.377Z,1.50
2019-02-08T20:18:36.412Z,1.50
2019-02-08T20:21:05.744Z,1.30
2019-02-08T20:23:53.842Z,1.27
2019-02-08T20:26:22.884Z,1.10
2019-02-08T20:28:52.100Z,1.40
2019-02-08T20:31:21.291Z,1.60
2019-02-08T20:33:50.132Z,1.10
2019-02-08T20:36:19.197Z,1.97
2019-02-08T20:38:48.509Z,2.33
2019-02-08T20:41:17.868Z,1.30
2019-02-08T20:43:46.885Z,1.40
2019-02-08T20:46:15.768Z,1.30
2019-02-08T20:48:44.689Z,2.50
2019-02-08T20:51:13.872Z,1.20
2019-02-08T20:53:42.720Z,2.33
2019-02-08T20:56:30.985Z,1.90
2019-02-08T20:58:59.750Z,1.70
2019-02-08T21:01:28.706Z,1.70
2019-02-08T21:03:57.508Z,1.90
2019-02-08T21:06:28.180Z,1.80
2019-02-08T21:08:59.647Z,1.50
2019-02-08T21:11:28.773Z,1.07
2019-02-08T21:13:57.760Z,1.20
2019-02-08T21:16:26.478Z,1.00
2019-02-08T21:18:55.587Z,1.23
2019-02-08T21:21:25.898Z,1.40
2019-02-08T21:23:55.075Z,1.10
2019-02-08T21:26:23.824Z,1.00
2019-02-08T21:28:57.948Z,1.17
2019-02-08T21:31:23.302Z,1.40
2019-02-08T21:33:52.059Z,1.10
2019-02-08T21:36:21.414Z,1.60
2019-02-08T21:38:50.473Z,1.30
2019-02-08T21:41:19.221Z,1.40
2019-02-08T21:43:48.440Z,1.40
2019-02-08T21:46:17.345Z,0.80
2019-02-08T21:48:46.141Z,1.03
2019-02-08T21:51:14.940Z,1.83
2019-02-08T21:53:43.944Z,1.77
2019-02-08T21:56:13.094Z,1.60
2019-02-08T21:58:42.382Z,1.70
2019-02-08T22:01:11.229Z,1.50
2019-02-08T22:03:40.022Z,1.70
2019-02-08T22:06:10.648Z,1.30
2019-02-08T22:08:39.973Z,1.30
2019-02-08T22:11:08.751Z,1.13
2019-02-08T22:13:37.511Z,1.37
2019-02-08T22:16:06.388Z,1.03
2019-02-08T22:18:35.225Z,1.33
2019-02-08T22:21:04.297Z,0.93
2019-02-08T22:23:33.101Z,1.30
2019-02-08T22:26:02.416Z,1.27
2019-02-08T22:28:31.528Z,1.47
2019-02-08T22:31:00.730Z,1.37
2019-02-08T22:33:29.706Z,1.30
2019-02-08T22:35:58.521Z,1.63
2019-02-08T22:38:27.481Z,1.13
2019-02-08T22:40:56.316Z,1.10
2019-02-08T22:43:25.325Z,1.20
2019-02-08T22:45:54.438Z,1.20
2019-02-08T22:48:23.278Z,1.70
2019-02-08T22:50:51.978Z,1.20
2019-02-08T22:53:20.718Z,1.20
2019-02-08T22:55:49.432Z,1.57
2019-02-08T22:58:18.903Z,1.10
2019-02-08T23:01:27.410Z,1.13
2019-02-08T23:03:57.516Z,1.10
2019-02-08T23:06:27.049Z,1.40
2019-02-08T23:08:56.585Z,1.50
2019-02-08T23:11:25.833Z,1.40
2019-02-08T23:13:54.848Z,1.10
2019-02-08T23:16:23.962Z,1.33
2019-02-08T23:18:52.945Z,0.90
2019-02-08T23:21:21.701Z,0.90
2019-02-08T23:23:50.913Z,1.33
2019-02-08T23:26:20.452Z,1.60
2019-02-08T23:28:49.212Z,1.20
2019-02-08T23:31:18.251Z,1.27
2019-02-08T23:33:47.345Z,1.07
2019-02-08T23:36:16.077Z,1.20
2019-02-08T23:38:45.352Z,1.13
2019-02-08T23:41:14.530Z,1.10
2019-02-08T23:43:43.384Z,1.20
2019-02-08T23:46:12.217Z,1.23
2019-02-08T23:48:41.276Z,0.80
2019-02-08T23:51:10.040Z,1.50
2019-02-08T23:53:41.981Z,1.10
2019-02-08T23:56:11.377Z,1.20
2019-02-08T23:58:40.209Z,1.27
